sensor_id;sensor_type;location;lat;lon;timestamp;temperature;humidity
45435;DHT22;31183;47.404;8.500;2023-10-08T00:00:46;17.30;94.00
45435;DHT22;31183;47.404;8.500;2023-10-08T00:03:16;17.20;94.10
45435;DHT22;31183;47.404;8.500;2023-10-08T00:05:44;17.10;94.10
45435;DHT22;31183;47.404;8.500;2023-10-08T00:08:12;17.10;94.20
45435;DHT22;31183;47.404;8.500;2023-10-08T00:10:43;17.00;94.20
45435;DHT22;31183;47.404;8.500;2023-10-08T00:13:11;17.10;94.30
45435;DHT22;31183;47.404;8.500;2023-10-08T00:15:39;17.10;94.20
45435;DHT22;31183;47.404;8.500;2023-10-08T00:18:22;17.00;94.20
45435;DHT22;31183;47.404;8.500;2023-10-08T00:20:50;17.10;94.10
45435;DHT22;31183;47.404;8.500;2023-10-08T00:23:46;17.10;94.00
45435;DHT22;31183;47.404;8.500;2023-10-08T00:26:20;17.10;93.90
45435;DHT22;31183;47.404;8.500;2023-10-08T00:28:55;17.10;93.90
45435;DHT22;31183;47.404;8.500;2023-10-08T00:31:23;17.10;93.80
45435;DHT22;31183;47.404;8.500;2023-10-08T00:34:05;17.10;93.80
45435;DHT22;31183;47.404;8.500;2023-10-08T00:36:32;17.10;93.70
45435;DHT22;31183;47.404;8.500;2023-10-08T00:39:02;17.10;93.70
45435;DHT22;31183;47.404;8.500;2023-10-08T00:41:34;17.10;93.40
45435;DHT22;31183;47.404;8.500;2023-10-08T00:44:01;17.10;93.30
45435;DHT22;31183;47.404;8.500;2023-10-08T00:46:28;17.00;93.20
45435;DHT22;31183;47.404;8.500;2023-10-08T00:49:01;17.00;93.10
45435;DHT22;31183;47.404;8.500;2023-10-08T00:51:56;17.00;92.80
45435;DHT22;31183;47.404;8.500;2023-10-08T00:54:46;16.90;93.20
45435;DHT22;31183;47.404;8.500;2023-10-08T00:57:25;17.00;93.20
45435;DHT22;31183;47.404;8.500;2023-10-08T00:59:52;17.00;93.20
45435;DHT22;31183;47.404;8.500;2023-10-08T01:02:27;17.00;93.20
45435;DHT22;31183;47.404;8.500;2023-10-08T01:04:56;17.00;93.20
45435;DHT22;31183;47.404;8.500;2023-10-08T01:07:23;17.00;93.20
45435;DHT22;31183;47.404;8.500;2023-10-08T01:09:51;17.00;93.10
45435;DHT22;31183;47.404;8.500;2023-10-08T01:12:20;17.00;93.10
45435;DHT22;31183;47.404;8.500;2023-10-08T01:14:50;17.00;93.10
45435;DHT22;31183;47.404;8.500;2023-10-08T01:17:21;17.00;93.10
45435;DHT22;31183;47.404;8.500;2023-10-08T01:19:53;17.00;93.10
45435;DHT22;31183;47.404;8.500;2023-10-08T01:22:31;16.90;93.10
45435;DHT22;31183;47.404;8.500;2023-10-08T01:24:59;16.90;93.10
45435;DHT22;31183;47.404;8.500;2023-10-08T01:27:30;16.90;93.10
45435;DHT22;31183;47.404;8.500;2023-10-08T01:30:01;16.80;93.10
45435;DHT22;31183;47.404;8.500;2023-10-08T01:32:46;16.80;93.10
45435;DHT22;31183;47.404;8.500;2023-10-08T01:35:13;16.80;93.20
45435;DHT22;31183;47.404;8.500;2023-10-08T01:37:58;16.80;93.20
45435;DHT22;31183;47.404;8.500;2023-10-08T01:40:26;16.80;93.20
45435;DHT22;31183;47.404;8.500;2023-10-08T01:42:56;16.80;93.20
45435;DHT22;31183;47.404;8.500;2023-10-08T01:45:26;16.80;93.20
45435;DHT22;31183;47.404;8.500;2023-10-08T01:47:53;16.70;93.30
45435;DHT22;31183;47.404;8.500;2023-10-08T01:50:21;16.70;93.30
45435;DHT22;31183;47.404;8.500;2023-10-08T01:52:49;16.70;93.30
45435;DHT22;31183;47.404;8.500;2023-10-08T01:55:16;16.70;93.30
45435;DHT22;31183;47.404;8.500;2023-10-08T01:57:46;16.70;93.30
45435;DHT22;31183;47.404;8.500;2023-10-08T02:00:14;16.60;93.30
45435;DHT22;31183;47.404;8.500;2023-10-08T02:02:41;16.60;93.30
45435;DHT22;31183;47.404;8.500;2023-10-08T02:05:08;16.60;93.40
45435;DHT22;31183;47.404;8.500;2023-10-08T02:07:35;16.60;93.40
45435;DHT22;31183;47.404;8.500;2023-10-08T02:10:01;16.60;93.50
45435;DHT22;31183;47.404;8.500;2023-10-08T02:12:28;16.60;93.50
45435;DHT22;31183;47.404;8.500;2023-10-08T02:14:55;16.60;93.40
45435;DHT22;31183;47.404;8.500;2023-10-08T02:17:21;16.60;93.40
45435;DHT22;31183;47.404;8.500;2023-10-08T02:19:49;16.60;93.50
45435;DHT22;31183;47.404;8.500;2023-10-08T02:22:16;16.60;93.50
45435;DHT22;31183;47.404;8.500;2023-10-08T02:24:42;16.60;93.50
45435;DHT22;31183;47.404;8.500;2023-10-08T02:27:09;16.60;93.60
45435;DHT22;31183;47.404;8.500;2023-10-08T02:29:37;16.60;93.60
45435;DHT22;31183;47.404;8.500;2023-10-08T02:32:03;16.60;93.60
45435;DHT22;31183;47.404;8.500;2023-10-08T02:34:31;16.60;93.60
45435;DHT22;31183;47.404;8.500;2023-10-08T02:36:58;16.60;93.60
45435;DHT22;31183;47.404;8.500;2023-10-08T02:39:27;16.60;93.60
45435;DHT22;31183;47.404;8.500;2023-10-08T02:41:55;16.60;93.60
45435;DHT22;31183;47.404;8.500;2023-10-08T02:44:25;16.60;93.70
45435;DHT22;31183;47.404;8.500;2023-10-08T02:46:52;16.60;93.60
45435;DHT22;31183;47.404;8.500;2023-10-08T02:49:20;16.60;93.60
45435;DHT22;31183;47.404;8.500;2023-10-08T02:51:57;16.50;93.50
45435;DHT22;31183;47.404;8.500;2023-10-08T02:54:24;16.50;93.50
45435;DHT22;31183;47.404;8.500;2023-10-08T02:56:59;16.50;93.50
45435;DHT22;31183;47.404;8.500;2023-10-08T02:59:30;16.50;93.40
45435;DHT22;31183;47.404;8.500;2023-10-08T03:02:08;16.50;93.30
45435;DHT22;31183;47.404;8.500;2023-10-08T03:04:43;16.40;93.30
45435;DHT22;31183;47.404;8.500;2023-10-08T03:07:15;16.40;93.30
45435;DHT22;31183;47.404;8.500;2023-10-08T03:09:50;16.30;93.20
45435;DHT22;31183;47.404;8.500;2023-10-08T03:12:17;16.30;93.30
45435;DHT22;31183;47.404;8.500;2023-10-08T03:14:45;16.30;93.40
45435;DHT22;31183;47.404;8.500;2023-10-08T03:17:30;16.20;93.40
45435;DHT22;31183;47.404;8.500;2023-10-08T03:20:04;16.20;93.40
45435;DHT22;31183;47.404;8.500;2023-10-08T03:22:51;16.20;93.40
45435;DHT22;31183;47.404;8.500;2023-10-08T03:25:18;16.20;93.40
45435;DHT22;31183;47.404;8.500;2023-10-08T03:27:47;16.20;93.30
45435;DHT22;31183;47.404;8.500;2023-10-08T03:30:15;16.20;93.30
45435;DHT22;31183;47.404;8.500;2023-10-08T03:32:45;16.20;93.30
45435;DHT22;31183;47.404;8.500;2023-10-08T03:35:12;16.20;93.30
45435;DHT22;31183;47.404;8.500;2023-10-08T03:37:39;16.20;93.30
45435;DHT22;31183;47.404;8.500;2023-10-08T03:40:12;16.20;93.30
45435;DHT22;31183;47.404;8.500;2023-10-08T03:42:58;16.20;93.30
45435;DHT22;31183;47.404;8.500;2023-10-08T03:45:25;16.10;93.30
45435;DHT22;31183;47.404;8.500;2023-10-08T03:48:10;16.10;93.30
45435;DHT22;31183;47.404;8.500;2023-10-08T03:50:42;16.10;93.30
45435;DHT22;31183;47.404;8.500;2023-10-08T03:53:10;16.10;93.40
45435;DHT22;31183;47.404;8.500;2023-10-08T03:55:39;16.10;93.40
45435;DHT22;31183;47.404;8.500;2023-10-08T03:58:09;16.10;93.40
45435;DHT22;31183;47.404;8.500;2023-10-08T04:00:54;16.10;93.40
45435;DHT22;31183;47.404;8.500;2023-10-08T04:03:35;16.10;93.40
45435;DHT22;31183;47.404;8.500;2023-10-08T04:06:28;16.20;93.50
45435;DHT22;31183;47.404;8.500;2023-10-08T04:08:59;16.10;93.40
45435;DHT22;31183;47.404;8.500;2023-10-08T04:11:36;16.20;93.40
45435;DHT22;31183;47.404;8.500;2023-10-08T04:14:15;16.10;93.40
45435;DHT22;31183;47.404;8.500;2023-10-08T04:16:43;16.10;93.50
45435;DHT22;31183;47.404;8.500;2023-10-08T04:19:10;16.10;93.40
45435;DHT22;31183;47.404;8.500;2023-10-08T04:21:38;16.10;93.50
45435;DHT22;31183;47.404;8.500;2023-10-08T04:24:09;16.10;93.50
45435;DHT22;31183;47.404;8.500;2023-10-08T04:26:36;16.10;93.60
45435;DHT22;31183;47.404;8.500;2023-10-08T04:29:06;16.10;93.60
45435;DHT22;31183;47.404;8.500;2023-10-08T04:31:33;16.10;93.60
45435;DHT22;31183;47.404;8.500;2023-10-08T04:34:10;16.00;93.60
45435;DHT22;31183;47.404;8.500;2023-10-08T04:36:49;16.00;93.60
45435;DHT22;31183;47.404;8.500;2023-10-08T04:39:24;16.00;93.60
45435;DHT22;31183;47.404;8.500;2023-10-08T04:42:02;16.00;93.50
45435;DHT22;31183;47.404;8.500;2023-10-08T04:44:40;16.00;93.60
45435;DHT22;31183;47.404;8.500;2023-10-08T04:47:09;15.90;93.60
45435;DHT22;31183;47.404;8.500;2023-10-08T04:49:44;15.90;93.50
45435;DHT22;31183;47.404;8.500;2023-10-08T04:52:12;15.90;93.50
45435;DHT22;31183;47.404;8.500;2023-10-08T04:54:42;15.90;93.50
45435;DHT22;31183;47.404;8.500;2023-10-08T04:57:19;15.80;93.50
45435;DHT22;31183;47.404;8.500;2023-10-08T04:59:49;15.80;93.60
45435;DHT22;31183;47.404;8.500;2023-10-08T05:02:20;15.80;93.60
45435;DHT22;31183;47.404;8.500;2023-10-08T05:04:56;15.80;93.60
45435;DHT22;31183;47.404;8.500;2023-10-08T05:07:43;15.80;93.60
45435;DHT22;31183;47.404;8.500;2023-10-08T05:10:15;15.80;93.60
45435;DHT22;31183;47.404;8.500;2023-10-08T05:12:52;15.70;93.70
45435;DHT22;31183;47.404;8.500;2023-10-08T05:15:34;15.80;93.70
45435;DHT22;31183;47.404;8.500;2023-10-08T05:18:08;15.80;93.70
45435;DHT22;31183;47.404;8.500;2023-10-08T05:20:44;15.70;93.70
45435;DHT22;31183;47.404;8.500;2023-10-08T05:23:26;15.80;93.70
45435;DHT22;31183;47.404;8.500;2023-10-08T05:25:57;15.80;93.70
45435;DHT22;31183;47.404;8.500;2023-10-08T05:28:34;15.80;93.70
45435;DHT22;31183;47.404;8.500;2023-10-08T05:31:09;15.80;93.70
45435;DHT22;31183;47.404;8.500;2023-10-08T05:33:42;15.80;93.70
45435;DHT22;31183;47.404;8.500;2023-10-08T05:36:28;15.80;93.60
45435;DHT22;31183;47.404;8.500;2023-10-08T05:39:02;15.70;93.60
45435;DHT22;31183;47.404;8.500;2023-10-08T05:41:48;15.70;93.60
45435;DHT22;31183;47.404;8.500;2023-10-08T05:44:19;15.70;93.70
45435;DHT22;31183;47.404;8.500;2023-10-08T05:46:46;15.60;93.80
45435;DHT22;31183;47.404;8.500;2023-10-08T05:49:24;15.60;93.80
45435;DHT22;31183;47.404;8.500;2023-10-08T05:51:57;15.60;93.80
45435;DHT22;31183;47.404;8.500;2023-10-08T05:54:31;15.60;93.80
45435;DHT22;31183;47.404;8.500;2023-10-08T05:59:46;15.60;93.80
45435;DHT22;31183;47.404;8.500;2023-10-08T06:02:20;15.60;93.80
45435;DHT22;31183;47.404;8.500;2023-10-08T06:05:03;15.60;93.70
45435;DHT22;31183;47.404;8.500;2023-10-08T06:07:54;15.70;93.80
45435;DHT22;31183;47.404;8.500;2023-10-08T06:10:31;15.70;93.60
45435;DHT22;31183;47.404;8.500;2023-10-08T06:13:00;15.70;93.50
45435;DHT22;31183;47.404;8.500;2023-10-08T06:18:29;15.80;93.40
45435;DHT22;31183;47.404;8.500;2023-10-08T06:20:58;15.80;93.40
45435;DHT22;31183;47.404;8.500;2023-10-08T06:23:29;15.90;93.30
45435;DHT22;31183;47.404;8.500;2023-10-08T06:26:02;15.90;93.30
45435;DHT22;31183;47.404;8.500;2023-10-08T06:28:42;15.90;93.40
45435;DHT22;31183;47.404;8.500;2023-10-08T06:31:09;16.00;93.40
45435;DHT22;31183;47.404;8.500;2023-10-08T06:33:44;16.00;93.30
45435;DHT22;31183;47.404;8.500;2023-10-08T06:36:11;16.10;93.30
45435;DHT22;31183;47.404;8.500;2023-10-08T06:38:40;16.20;93.30
45435;DHT22;31183;47.404;8.500;2023-10-08T06:41:12;16.30;93.10
45435;DHT22;31183;47.404;8.500;2023-10-08T06:43:46;16.10;92.90
45435;DHT22;31183;47.404;8.500;2023-10-08T06:46:16;16.20;93.30
45435;DHT22;31183;47.404;8.500;2023-10-08T06:48:46;16.30;93.40
45435;DHT22;31183;47.404;8.500;2023-10-08T06:51:13;16.50;93.20
45435;DHT22;31183;47.404;8.500;2023-10-08T06:53:44;16.70;93.10
45435;DHT22;31183;47.404;8.500;2023-10-08T06:56:15;16.80;92.70
45435;DHT22;31183;47.404;8.500;2023-10-08T06:58:43;16.90;92.60
45435;DHT22;31183;47.404;8.500;2023-10-08T07:01:16;17.00;92.60
45435;DHT22;31183;47.404;8.500;2023-10-08T07:03:48;17.10;92.60
45435;DHT22;31183;47.404;8.500;2023-10-08T07:06:18;17.20;92.40
45435;DHT22;31183;47.404;8.500;2023-10-08T07:08:59;16.90;92.20
45435;DHT22;31183;47.404;8.500;2023-10-08T07:11:26;16.90;92.70
45435;DHT22;31183;47.404;8.500;2023-10-08T07:13:53;17.00;93.00
45435;DHT22;31183;47.404;8.500;2023-10-08T07:16:21;17.00;92.50
45435;DHT22;31183;47.404;8.500;2023-10-08T07:18:48;16.90;92.40
45435;DHT22;31183;47.404;8.500;2023-10-08T07:21:19;16.70;92.50
45435;DHT22;31183;47.404;8.500;2023-10-08T07:23:50;16.70;92.80
45435;DHT22;31183;47.404;8.500;2023-10-08T07:26:25;16.60;92.80
45435;DHT22;31183;47.404;8.500;2023-10-08T07:28:52;16.80;93.00
45435;DHT22;31183;47.404;8.500;2023-10-08T07:31:23;17.00;92.80
45435;DHT22;31183;47.404;8.500;2023-10-08T07:33:54;17.30;92.70
45435;DHT22;31183;47.404;8.500;2023-10-08T07:36:27;17.50;92.50
45435;DHT22;31183;47.404;8.500;2023-10-08T07:38:55;17.70;92.30
45435;DHT22;31183;47.404;8.500;2023-10-08T07:41:22;17.70;92.30
45435;DHT22;31183;47.404;8.500;2023-10-08T07:43:50;17.80;92.30
45435;DHT22;31183;47.404;8.500;2023-10-08T07:46:27;17.90;92.60
45435;DHT22;31183;47.404;8.500;2023-10-08T07:48:54;17.90;92.40
45435;DHT22;31183;47.404;8.500;2023-10-08T07:51:21;18.00;92.40
45435;DHT22;31183;47.404;8.500;2023-10-08T07:53:50;18.10;92.40
45435;DHT22;31183;47.404;8.500;2023-10-08T07:56:21;18.20;92.40
45435;DHT22;31183;47.404;8.500;2023-10-08T07:58:48;18.20;92.40
45435;DHT22;31183;47.404;8.500;2023-10-08T08:01:15;18.20;92.30
45435;DHT22;31183;47.404;8.500;2023-10-08T08:03:41;18.20;92.20
45435;DHT22;31183;47.404;8.500;2023-10-08T08:06:09;18.30;92.10
45435;DHT22;31183;47.404;8.500;2023-10-08T08:08:37;18.30;92.00
45435;DHT22;31183;47.404;8.500;2023-10-08T08:11:08;18.30;92.00
45435;DHT22;31183;47.404;8.500;2023-10-08T08:13:44;18.30;92.00
45435;DHT22;31183;47.404;8.500;2023-10-08T08:16:12;18.30;91.90
45435;DHT22;31183;47.404;8.500;2023-10-08T08:18:49;18.40;91.90
45435;DHT22;31183;47.404;8.500;2023-10-08T08:21:19;18.40;91.90
45435;DHT22;31183;47.404;8.500;2023-10-08T08:23:47;18.40;91.90
45435;DHT22;31183;47.404;8.500;2023-10-08T08:26:17;18.50;91.90
45435;DHT22;31183;47.404;8.500;2023-10-08T08:28:59;18.50;91.90
45435;DHT22;31183;47.404;8.500;2023-10-08T08:31:29;18.60;91.90
45435;DHT22;31183;47.404;8.500;2023-10-08T08:33:59;18.90;91.60
45435;DHT22;31183;47.404;8.500;2023-10-08T08:36:44;19.30;91.20
45435;DHT22;31183;47.404;8.500;2023-10-08T08:39:13;19.50;90.70
45435;DHT22;31183;47.404;8.500;2023-10-08T08:41:59;19.70;89.60
45435;DHT22;31183;47.404;8.500;2023-10-08T08:44:36;20.00;89.70
45435;DHT22;31183;47.404;8.500;2023-10-08T08:47:15;20.20;87.80
45435;DHT22;31183;47.404;8.500;2023-10-08T08:49:45;20.40;87.50
45435;DHT22;31183;47.404;8.500;2023-10-08T08:52:12;20.60;87.30
45435;DHT22;31183;47.404;8.500;2023-10-08T08:54:41;20.70;85.30
45435;DHT22;31183;47.404;8.500;2023-10-08T08:57:10;20.80;86.30
45435;DHT22;31183;47.404;8.500;2023-10-08T08:59:52;20.90;85.10
45435;DHT22;31183;47.404;8.500;2023-10-08T09:02:19;21.10;86.40
45435;DHT22;31183;47.404;8.500;2023-10-08T09:04:48;21.20;85.30
45435;DHT22;31183;47.404;8.500;2023-10-08T09:07:18;21.40;85.00
45435;DHT22;31183;47.404;8.500;2023-10-08T09:09:48;21.40;83.40
45435;DHT22;31183;47.404;8.500;2023-10-08T09:12:17;21.50;83.00
45435;DHT22;31183;47.404;8.500;2023-10-08T09:14:44;21.60;85.40
45435;DHT22;31183;47.404;8.500;2023-10-08T09:17:16;21.70;85.30
45435;DHT22;31183;47.404;8.500;2023-10-08T09:19:43;21.70;84.40
45435;DHT22;31183;47.404;8.500;2023-10-08T09:22:11;21.80;86.10
45435;DHT22;31183;47.404;8.500;2023-10-08T09:24:40;21.80;86.10
45435;DHT22;31183;47.404;8.500;2023-10-08T09:27:09;21.80;82.30
45435;DHT22;31183;47.404;8.500;2023-10-08T09:29:41;21.70;83.40
45435;DHT22;31183;47.404;8.500;2023-10-08T09:32:12;21.80;84.80
45435;DHT22;31183;47.404;8.500;2023-10-08T09:34:40;21.80;85.20
45435;DHT22;31183;47.404;8.500;2023-10-08T09:37:07;21.90;85.00
45435;DHT22;31183;47.404;8.500;2023-10-08T09:39:34;22.00;84.20
45435;DHT22;31183;47.404;8.500;2023-10-08T09:42:03;22.20;83.10
45435;DHT22;31183;47.404;8.500;2023-10-08T09:44:33;22.30;83.70
45435;DHT22;31183;47.404;8.500;2023-10-08T09:47:03;22.50;82.60
45435;DHT22;31183;47.404;8.500;2023-10-08T09:49:46;22.60;82.30
45435;DHT22;31183;47.404;8.500;2023-10-08T09:52:19;22.90;82.30
45435;DHT22;31183;47.404;8.500;2023-10-08T09:54:49;23.00;80.60
45435;DHT22;31183;47.404;8.500;2023-10-08T09:57:18;23.00;80.50
45435;DHT22;31183;47.404;8.500;2023-10-08T09:59:47;23.10;81.50
45435;DHT22;31183;47.404;8.500;2023-10-08T10:02:16;23.40;80.70
45435;DHT22;31183;47.404;8.500;2023-10-08T10:04:45;23.70;79.30
45435;DHT22;31183;47.404;8.500;2023-10-08T10:07:14;23.90;79.90
45435;DHT22;31183;47.404;8.500;2023-10-08T10:09:43;24.10;79.60
45435;DHT22;31183;47.404;8.500;2023-10-08T10:12:12;24.10;77.40
45435;DHT22;31183;47.404;8.500;2023-10-08T10:14:46;24.10;77.70
45435;DHT22;31183;47.404;8.500;2023-10-08T10:17:27;24.00;75.70
45435;DHT22;31183;47.404;8.500;2023-10-08T10:20:10;24.00;77.10
45435;DHT22;31183;47.404;8.500;2023-10-08T10:22:42;23.90;77.10
45435;DHT22;31183;47.404;8.500;2023-10-08T10:25:10;23.80;78.00
45435;DHT22;31183;47.404;8.500;2023-10-08T10:30:19;23.50;77.50
45435;DHT22;31183;47.404;8.500;2023-10-08T10:32:53;23.30;78.70
45435;DHT22;31183;47.404;8.500;2023-10-08T10:35:20;23.10;79.00
45435;DHT22;31183;47.404;8.500;2023-10-08T10:37:47;23.00;79.50
45435;DHT22;31183;47.404;8.500;2023-10-08T10:40:22;22.80;79.30
45435;DHT22;31183;47.404;8.500;2023-10-08T10:43:08;22.70;79.50
45435;DHT22;31183;47.404;8.500;2023-10-08T10:45:42;22.60;80.20
45435;DHT22;31183;47.404;8.500;2023-10-08T10:48:10;22.40;80.90
45435;DHT22;31183;47.404;8.500;2023-10-08T10:50:41;22.40;80.50
45435;DHT22;31183;47.404;8.500;2023-10-08T10:53:28;22.30;80.10
45435;DHT22;31183;47.404;8.500;2023-10-08T10:55:56;22.20;80.40
45435;DHT22;31183;47.404;8.500;2023-10-08T10:58:26;22.20;79.70
45435;DHT22;31183;47.404;8.500;2023-10-08T11:00:54;22.10;79.80
45435;DHT22;31183;47.404;8.500;2023-10-08T11:03:25;22.00;79.70
45435;DHT22;31183;47.404;8.500;2023-10-08T11:05:57;22.00;79.10
45435;DHT22;31183;47.404;8.500;2023-10-08T11:08:27;21.90;79.10
45435;DHT22;31183;47.404;8.500;2023-10-08T11:11:01;21.90;80.40
45435;DHT22;31183;47.404;8.500;2023-10-08T11:13:34;21.80;80.60
45435;DHT22;31183;47.404;8.500;2023-10-08T11:16:08;21.70;81.20
45435;DHT22;31183;47.404;8.500;2023-10-08T11:18:44;21.70;81.70
45435;DHT22;31183;47.404;8.500;2023-10-08T11:21:13;21.70;82.10
45435;DHT22;31183;47.404;8.500;2023-10-08T11:23:46;21.70;82.10
45435;DHT22;31183;47.404;8.500;2023-10-08T11:26:23;21.70;81.00
45435;DHT22;31183;47.404;8.500;2023-10-08T11:29:00;21.80;81.40
45435;DHT22;31183;47.404;8.500;2023-10-08T11:31:28;21.70;81.90
45435;DHT22;31183;47.404;8.500;2023-10-08T11:34:04;21.70;82.50
45435;DHT22;31183;47.404;8.500;2023-10-08T11:36:39;21.60;82.80
45435;DHT22;31183;47.404;8.500;2023-10-08T11:39:16;21.60;83.40
45435;DHT22;31183;47.404;8.500;2023-10-08T11:42:15;21.60;83.80
45435;DHT22;31183;47.404;8.500;2023-10-08T11:45:00;21.60;83.20
45435;DHT22;31183;47.404;8.500;2023-10-08T11:47:45;21.50;83.80
45435;DHT22;31183;47.404;8.500;2023-10-08T11:50:12;21.50;84.60
45435;DHT22;31183;47.404;8.500;2023-10-08T11:52:46;21.50;84.90
45435;DHT22;31183;47.404;8.500;2023-10-08T11:55:13;21.60;84.40
45435;DHT22;31183;47.404;8.500;2023-10-08T11:57:46;21.60;84.00
45435;DHT22;31183;47.404;8.500;2023-10-08T12:00:16;21.70;84.20
45435;DHT22;31183;47.404;8.500;2023-10-08T12:02:49;21.70;84.20
45435;DHT22;31183;47.404;8.500;2023-10-08T12:05:16;21.80;84.10
45435;DHT22;31183;47.404;8.500;2023-10-08T12:07:47;21.80;84.10
45435;DHT22;31183;47.404;8.500;2023-10-08T12:10:14;21.90;84.00
45435;DHT22;31183;47.404;8.500;2023-10-08T12:12:43;22.00;83.70
45435;DHT22;31183;47.404;8.500;2023-10-08T12:15:12;21.90;84.00
45435;DHT22;31183;47.404;8.500;2023-10-08T12:17:50;21.80;83.70
45435;DHT22;31183;47.404;8.500;2023-10-08T12:20:36;21.80;84.10
45435;DHT22;31183;47.404;8.500;2023-10-08T12:23:06;21.70;84.20
45435;DHT22;31183;47.404;8.500;2023-10-08T12:25:37;21.70;84.50
45435;DHT22;31183;47.404;8.500;2023-10-08T12:28:04;21.60;84.20
45435;DHT22;31183;47.404;8.500;2023-10-08T12:30:32;21.60;84.30
45435;DHT22;31183;47.404;8.500;2023-10-08T12:33:01;21.60;84.30
45435;DHT22;31183;47.404;8.500;2023-10-08T12:35:28;21.60;84.30
45435;DHT22;31183;47.404;8.500;2023-10-08T12:37:56;21.50;84.50
45435;DHT22;31183;47.404;8.500;2023-10-08T12:40:23;21.50;84.80
45435;DHT22;31183;47.404;8.500;2023-10-08T12:42:51;21.50;84.80
45435;DHT22;31183;47.404;8.500;2023-10-08T12:45:18;21.50;85.10
45435;DHT22;31183;47.404;8.500;2023-10-08T12:47:50;21.50;85.00
45435;DHT22;31183;47.404;8.500;2023-10-08T12:50:19;21.60;84.40
45435;DHT22;31183;47.404;8.500;2023-10-08T12:53:12;21.70;84.40
45435;DHT22;31183;47.404;8.500;2023-10-08T12:55:38;21.70;83.60
45435;DHT22;31183;47.404;8.500;2023-10-08T12:58:06;21.70;84.30
45435;DHT22;31183;47.404;8.500;2023-10-08T13:00:39;21.70;83.70
45435;DHT22;31183;47.404;8.500;2023-10-08T13:03:08;21.80;83.80
45435;DHT22;31183;47.404;8.500;2023-10-08T13:05:42;21.80;83.50
45435;DHT22;31183;47.404;8.500;2023-10-08T13:08:10;21.80;83.10
45435;DHT22;31183;47.404;8.500;2023-10-08T13:10:40;21.80;83.10
45435;DHT22;31183;47.404;8.500;2023-10-08T13:13:10;21.80;82.50
45435;DHT22;31183;47.404;8.500;2023-10-08T13:15:40;21.80;82.70
45435;DHT22;31183;47.404;8.500;2023-10-08T13:18:08;21.80;82.40
45435;DHT22;31183;47.404;8.500;2023-10-08T13:20:35;21.80;82.80
45435;DHT22;31183;47.404;8.500;2023-10-08T13:23:02;21.70;83.10
45435;DHT22;31183;47.404;8.500;2023-10-08T13:25:30;21.70;83.00
45435;DHT22;31183;47.404;8.500;2023-10-08T13:27:59;21.70;83.00
45435;DHT22;31183;47.404;8.500;2023-10-08T13:30:27;21.60;83.30
45435;DHT22;31183;47.404;8.500;2023-10-08T13:32:53;21.60;83.40
45435;DHT22;31183;47.404;8.500;2023-10-08T13:35:20;21.60;83.50
45435;DHT22;31183;47.404;8.500;2023-10-08T13:37:47;21.60;83.50
45435;DHT22;31183;47.404;8.500;2023-10-08T13:40:15;21.60;83.60
45435;DHT22;31183;47.404;8.500;2023-10-08T13:42:42;21.60;83.60
45435;DHT22;31183;47.404;8.500;2023-10-08T13:45:09;21.60;83.90
45435;DHT22;31183;47.404;8.500;2023-10-08T13:47:36;21.60;83.90
45435;DHT22;31183;47.404;8.500;2023-10-08T13:50:06;21.60;84.10
45435;DHT22;31183;47.404;8.500;2023-10-08T13:52:37;21.60;84.10
45435;DHT22;31183;47.404;8.500;2023-10-08T13:55:06;21.60;84.00
45435;DHT22;31183;47.404;8.500;2023-10-08T13:57:34;21.60;84.30
45435;DHT22;31183;47.404;8.500;2023-10-08T14:00:01;21.60;83.00
45435;DHT22;31183;47.404;8.500;2023-10-08T14:02:28;21.60;83.80
45435;DHT22;31183;47.404;8.500;2023-10-08T14:04:57;21.60;83.90
45435;DHT22;31183;47.404;8.500;2023-10-08T14:07:24;21.60;83.50
45435;DHT22;31183;47.404;8.500;2023-10-08T14:09:51;21.70;82.50
45435;DHT22;31183;47.404;8.500;2023-10-08T14:12:20;21.80;82.50
45435;DHT22;31183;47.404;8.500;2023-10-08T14:14:47;21.80;83.00
45435;DHT22;31183;47.404;8.500;2023-10-08T14:17:15;21.70;83.40
45435;DHT22;31183;47.404;8.500;2023-10-08T14:19:42;21.70;84.10
45435;DHT22;31183;47.404;8.500;2023-10-08T14:22:13;21.70;84.20
45435;DHT22;31183;47.404;8.500;2023-10-08T14:24:43;21.60;84.40
45435;DHT22;31183;47.404;8.500;2023-10-08T14:27:13;21.60;84.40
45435;DHT22;31183;47.404;8.500;2023-10-08T14:29:42;21.60;84.40
45435;DHT22;31183;47.404;8.500;2023-10-08T14:32:17;21.50;84.40
45435;DHT22;31183;47.404;8.500;2023-10-08T14:34:43;21.50;84.20
45435;DHT22;31183;47.404;8.500;2023-10-08T14:37:13;21.50;84.30
45435;DHT22;31183;47.404;8.500;2023-10-08T14:39:59;21.50;84.50
45435;DHT22;31183;47.404;8.500;2023-10-08T14:42:44;21.50;84.80
45435;DHT22;31183;47.404;8.500;2023-10-08T14:45:30;21.50;85.20
45435;DHT22;31183;47.404;8.500;2023-10-08T14:48:02;21.50;85.20
45435;DHT22;31183;47.404;8.500;2023-10-08T14:50:32;21.50;85.20
45435;DHT22;31183;47.404;8.500;2023-10-08T14:53:00;21.40;85.30
45435;DHT22;31183;47.404;8.500;2023-10-08T14:55:28;21.40;85.10
45435;DHT22;31183;47.404;8.500;2023-10-08T14:57:55;21.50;84.30
45435;DHT22;31183;47.404;8.500;2023-10-08T15:00:22;21.50;84.50
45435;DHT22;31183;47.404;8.500;2023-10-08T15:02:54;21.50;84.40
45435;DHT22;31183;47.404;8.500;2023-10-08T15:05:22;21.50;84.50
45435;DHT22;31183;47.404;8.500;2023-10-08T15:07:50;21.50;84.50
45435;DHT22;31183;47.404;8.500;2023-10-08T15:10:18;21.50;84.50
45435;DHT22;31183;47.404;8.500;2023-10-08T15:12:45;21.50;84.40
45435;DHT22;31183;47.404;8.500;2023-10-08T15:15:12;21.50;84.50
45435;DHT22;31183;47.404;8.500;2023-10-08T15:17:42;21.50;84.40
45435;DHT22;31183;47.404;8.500;2023-10-08T15:20:11;21.50;84.40
45435;DHT22;31183;47.404;8.500;2023-10-08T15:22:44;21.50;84.40
45435;DHT22;31183;47.404;8.500;2023-10-08T15:25:11;21.50;84.40
45435;DHT22;31183;47.404;8.500;2023-10-08T15:27:39;21.50;84.50
45435;DHT22;31183;47.404;8.500;2023-10-08T15:30:08;21.40;84.50
45435;DHT22;31183;47.404;8.500;2023-10-08T15:32:39;21.40;84.70
45435;DHT22;31183;47.404;8.500;2023-10-08T15:35:07;21.40;85.60
45435;DHT22;31183;47.404;8.500;2023-10-08T15:37:38;21.40;85.10
45435;DHT22;31183;47.404;8.500;2023-10-08T15:40:05;21.40;84.80
45435;DHT22;31183;47.404;8.500;2023-10-08T15:42:34;21.40;84.80
45435;DHT22;31183;47.404;8.500;2023-10-08T15:45:02;21.40;84.70
45435;DHT22;31183;47.404;8.500;2023-10-08T15:47:29;21.40;84.60
45435;DHT22;31183;47.404;8.500;2023-10-08T15:49:58;21.40;84.60
45435;DHT22;31183;47.404;8.500;2023-10-08T15:52:25;21.40;84.90
45435;DHT22;31183;47.404;8.500;2023-10-08T15:54:53;21.50;84.90
45435;DHT22;31183;47.404;8.500;2023-10-08T15:57:19;21.40;84.90
45435;DHT22;31183;47.404;8.500;2023-10-08T15:59:46;21.40;85.10
45435;DHT22;31183;47.404;8.500;2023-10-08T16:02:13;21.50;85.50
45435;DHT22;31183;47.404;8.500;2023-10-08T16:04:40;21.40;85.70